L' Anse, Michigan
Current Conditions -  °F | °C
As of 12:53 PM on Saturday 20 Dec 2014 (Local Time) from KCMX Reporting Station
Overcast Overcast  
Wind Chill: 24°   Ceiling: 1800
Heat Index: 24°   Visibility: 10mi
Dew Point: 20°   Wind: 0mph
Humidity: 84%   Direction: NA
Pressure: 30.16"   Gusts: NA
Location:  46.7277°N, 88.2881°W
Report Text: KCMX 201753Z AUTO 00000KT 10SM OVC018 M04/M07 A3016 RMK AO2 SLP231 I6001 T10441067 11044 21106 58007 $
Loading
Personal Weather Stations






























Interactive Weather Map New forecast layout! Learn more

10-Day Weather Forecast

Advertisements
Track Severe Weather on mobile